PWSweather.com
Personal Weather Stations
Station Observations
BALTRELAY
Relay, Baltimore, MD 21227

RelayBaltimore, MD 21227

Lat: 39.24588, Lon: -76.719772

Elevation: 221

Station Type: Davis Vantage Pro2 (6153)

http://www.relayweather.com

Latest ConditionsUpdated 11:20:04 AM GMT Wednesday, May 6, 2015
Currently Today's Max Today's Min Today's Average
Temperature 63.0°F17.2°C 70.0°F21.1°C 60.9°F16.1°C 65.7°F18.7°C
Dew Point 60.3°F15.7°C 63.1°F17.3°C 58.4°F14.7°C 60.8°F16.0°C
Winds Calm Calm 7.0 mph SW11.3 kmh SW - 2.6 mph 4.2 kmh
Wind Gusts -- 11.1 mph17.9 kmh - -
Humidity 91% 92% 77% 84%
Pressure 30.17 in1021.7 mb 30.18 in1022.0 mb 30.14 in1020.7 mb -
Hour Temp Dew Point Humidity Winds Wind Gusts Pressure Precip Precip Rate Daily Precip Total
11:20 AM 63.0°F17.2°C 60.3°F15.7°C 91% Calm Calm -- 30.17 in1021.7 mb - 0.00 in0.0 mm 0.00 in0.0 mm
11:15 AM 62.5°F16.9°C 59.8°F15.4°C 91% 1.3 mph NW2.1 kmh NW 1.0 mph1.6 kmh 30.17 in1021.7 mb - 0.00 in0.0 mm 0.00 in0.0 mm
11:10 AM 62.3°F16.8°C 59.9°F15.5°C 92% Calm Calm -- 30.17 in1021.7 mb - 0.00 in0.0 mm 0.00 in0.0 mm
11:00 AM 61.6°F16.4°C 59.3°F15.2°C 92% 1.7 mph ENE2.7 kmh ENE 2.0 mph3.2 kmh 30.17 in1021.7 mb - 0.00 in0.0 mm 0.00 in0.0 mm
10:50 AM 61.2°F16.2°C 58.8°F14.9°C 92% Calm Calm -- 30.16 in1021.3 mb - 0.00 in0.0 mm 0.00 in0.0 mm
10:45 AM 61.0°F16.1°C 58.6°F14.8°C 92% Calm Calm -- 30.16 in1021.3 mb - 0.00 in0.0 mm 0.00 in0.0 mm
10:40 AM 61.0°F16.1°C 58.6°F14.8°C 92% 0.1 mph NW0.2 kmh NW 2.0 mph3.2 kmh 30.16 in1021.3 mb - 0.00 in0.0 mm 0.00 in0.0 mm
10:30 AM 60.9°F16.1°C 58.5°F14.7°C 92% Calm Calm -- 30.16 in1021.3 mb - 0.00 in0.0 mm 0.00 in0.0 mm
10:20 AM 61.1°F16.2°C 58.4°F14.7°C 91% Calm Calm -- 30.16 in1021.3 mb - 0.00 in0.0 mm 0.00 in0.0 mm
10:15 AM 61.2°F16.2°C 58.5°F14.7°C 91% 2.0 mph N3.2 kmh N 2.0 mph3.2 kmh 30.16 in1021.3 mb - 0.00 in0.0 mm 0.00 in0.0 mm
10:10 AM 61.4°F16.3°C 58.7°F14.8°C 91% 0.1 mph SW0.2 kmh SW 2.0 mph3.2 kmh 30.16 in1021.3 mb - 0.00 in0.0 mm 0.00 in0.0 mm
10:00 AM 61.6°F16.4°C 58.9°F14.9°C 91% Calm Calm -- 30.15 in1021.0 mb - 0.00 in0.0 mm 0.00 in0.0 mm
09:50 AM 61.5°F16.4°C 58.5°F14.7°C 90% 2.7 mph S4.3 kmh S 4.0 mph6.4 kmh 30.15 in1021.0 mb - 0.00 in0.0 mm 0.00 in0.0 mm
09:45 AM 61.8°F16.6°C 58.8°F14.9°C 90% 2.5 mph SSW4.0 kmh SSW 5.0 mph8.0 kmh 30.15 in1021.0 mb - 0.00 in0.0 mm 0.00 in0.0 mm
09:40 AM 62.1°F16.7°C 58.8°F14.9°C 89% Calm Calm -- 30.15 in1021.0 mb - 0.00 in0.0 mm 0.00 in0.0 mm
09:30 AM 62.6°F17.0°C 59.3°F15.2°C 89% 1.7 mph SSW2.7 kmh SSW 4.0 mph6.4 kmh 30.15 in1021.0 mb - 0.00 in0.0 mm 0.00 in0.0 mm
09:20 AM 62.9°F17.2°C 59.3°F15.2°C 88% Calm Calm -- 30.14 in1020.7 mb - 0.00 in0.0 mm 0.00 in0.0 mm
09:15 AM 63.0°F17.2°C 59.4°F15.2°C 88% Calm Calm -- 30.14 in1020.7 mb - 0.00 in0.0 mm 0.00 in0.0 mm
09:10 AM 63.2°F17.3°C 59.6°F15.3°C 88% Calm Calm -- 30.14 in1020.7 mb - 0.00 in0.0 mm 0.00 in0.0 mm
09:00 AM 64.1°F17.8°C 60.1°F15.6°C 87% Calm Calm -- 30.14 in1020.7 mb - 0.00 in0.0 mm 0.00 in0.0 mm
08:50 AM 64.3°F17.9°C 60.0°F15.6°C 86% Calm Calm -- 30.14 in1020.7 mb - 0.00 in0.0 mm 0.00 in0.0 mm
08:45 AM 64.5°F18.1°C 60.2°F15.7°C 86% Calm Calm -- 30.14 in1020.7 mb - 0.00 in0.0 mm 0.00 in0.0 mm
08:40 AM 64.7°F18.2°C 60.4°F15.8°C 86% 0.1 mph SW0.2 kmh SW -- 30.14 in1020.7 mb - 0.00 in0.0 mm 0.00 in0.0 mm
08:30 AM 64.7°F18.2°C 60.4°F15.8°C 86% 1.6 mph WSW2.6 kmh WSW 3.0 mph4.8 kmh 30.14 in1020.7 mb - 0.00 in0.0 mm 0.00 in0.0 mm
08:20 AM 65.2°F18.4°C 60.6°F15.9°C 85% 1.1 mph SW1.8 kmh SW -- 30.14 in1020.7 mb - 0.00 in0.0 mm 0.00 in0.0 mm
08:15 AM 65.0°F18.3°C 60.4°F15.8°C 85% 0.9 mph SW1.4 kmh SW 4.0 mph6.4 kmh 30.14 in1020.7 mb - 0.00 in0.0 mm 0.00 in0.0 mm
08:10 AM 64.9°F18.3°C 60.3°F15.7°C 85% 3.4 mph SW5.5 kmh SW 5.0 mph8.0 kmh 30.14 in1020.7 mb - 0.00 in0.0 mm 0.00 in0.0 mm
08:00 AM 65.0°F18.3°C 60.4°F15.8°C 85% 2.4 mph W3.9 kmh W 2.0 mph3.2 kmh 30.14 in1020.7 mb - 0.00 in0.0 mm 0.00 in0.0 mm
07:50 AM 64.8°F18.2°C 60.2°F15.7°C 85% 3.5 mph W5.6 kmh W 4.0 mph6.4 kmh 30.14 in1020.7 mb - 0.00 in0.0 mm 0.00 in0.0 mm
07:45 AM 64.9°F18.3°C 60.3°F15.7°C 85% 3.0 mph W4.8 kmh W 6.1 mph9.8 kmh 30.14 in1020.7 mb - 0.00 in0.0 mm 0.00 in0.0 mm
07:40 AM 65.1°F18.4°C 60.1°F15.6°C 84% 2.3 mph W3.7 kmh W 5.0 mph8.0 kmh 30.14 in1020.7 mb - 0.00 in0.0 mm 0.00 in0.0 mm
07:30 AM 65.1°F18.4°C 60.1°F15.6°C 84% 3.7 mph W6.0 kmh W 7.1 mph11.4 kmh 30.14 in1020.7 mb - 0.00 in0.0 mm 0.00 in0.0 mm
07:20 AM 65.3°F18.5°C 60.3°F15.7°C 84% 3.7 mph W6.0 kmh W 6.1 mph9.8 kmh 30.14 in1020.7 mb - 0.00 in0.0 mm 0.00 in0.0 mm
07:15 AM 65.3°F18.5°C 60.3°F15.7°C 84% 2.4 mph W3.9 kmh W 3.0 mph4.8 kmh 30.14 in1020.7 mb - 0.00 in0.0 mm 0.00 in0.0 mm
07:10 AM 65.2°F18.4°C 60.2°F15.7°C 84% 4.9 mph W7.9 kmh W 8.1 mph13.0 kmh 30.14 in1020.7 mb - 0.00 in0.0 mm 0.00 in0.0 mm
07:00 AM 65.4°F18.6°C 60.1°F15.6°C 83% 3.2 mph W5.1 kmh W 7.1 mph11.4 kmh 30.14 in1020.7 mb - 0.00 in0.0 mm 0.00 in0.0 mm
06:50 AM 65.6°F18.7°C 60.3°F15.7°C 83% 4.5 mph W7.2 kmh W 9.1 mph14.6 kmh 30.14 in1020.7 mb - 0.00 in0.0 mm 0.00 in0.0 mm
06:45 AM 65.7°F18.7°C 60.4°F15.8°C 83% 5.4 mph WSW8.7 kmh WSW 9.1 mph14.6 kmh 30.14 in1020.7 mb - 0.00 in0.0 mm 0.00 in0.0 mm
06:40 AM 65.8°F18.8°C 60.2°F15.7°C 82% 3.8 mph WNW6.1 kmh WNW 6.1 mph9.8 kmh 30.14 in1020.7 mb - 0.00 in0.0 mm 0.00 in0.0 mm
06:30 AM 65.9°F18.8°C 60.2°F15.7°C 82% 3.6 mph WSW5.8 kmh WSW 10.1 mph16.3 kmh 30.15 in1021.0 mb - 0.00 in0.0 mm 0.00 in0.0 mm
06:20 AM 65.9°F18.8°C 60.3°F15.7°C 82% 6.6 mph WSW10.6 kmh WSW 11.1 mph17.9 kmh 30.15 in1021.0 mb - 0.00 in0.0 mm 0.00 in0.0 mm
06:15 AM 66.0°F18.9°C 60.3°F15.7°C 82% 5.6 mph WNW9.0 kmh WNW 7.1 mph11.4 kmh 30.15 in1021.0 mb - 0.00 in0.0 mm 0.00 in0.0 mm
06:10 AM 66.0°F18.9°C 60.4°F15.8°C 82% 2.2 mph W3.5 kmh W 6.1 mph9.8 kmh 30.15 in1021.0 mb - 0.00 in0.0 mm 0.00 in0.0 mm
06:00 AM 65.8°F18.8°C 60.1°F15.6°C 82% 3.2 mph WSW5.1 kmh WSW 6.1 mph9.8 kmh 30.16 in1021.3 mb - 0.00 in0.0 mm 0.00 in0.0 mm
05:50 AM 66.0°F18.9°C 60.3°F15.7°C 82% 2.6 mph W4.2 kmh W 7.1 mph11.4 kmh 30.16 in1021.3 mb - 0.00 in0.0 mm 0.00 in0.0 mm
05:45 AM 65.9°F18.8°C 60.3°F15.7°C 82% 4.6 mph WSW7.4 kmh WSW 8.1 mph13.0 kmh 30.16 in1021.3 mb - 0.00 in0.0 mm 0.00 in0.0 mm
05:40 AM 65.9°F18.8°C 60.2°F15.7°C 82% 3.3 mph WSW5.3 kmh WSW 9.1 mph14.6 kmh 30.16 in1021.3 mb - 0.00 in0.0 mm 0.00 in0.0 mm
05:30 AM 66.1°F18.9°C 60.4°F15.8°C 82% 4.9 mph WSW7.9 kmh WSW 9.1 mph14.6 kmh 30.17 in1021.7 mb - 0.00 in0.0 mm 0.00 in0.0 mm
05:20 AM 66.1°F18.9°C 60.4°F15.8°C 82% 4.3 mph W6.9 kmh W 7.1 mph11.4 kmh 30.16 in1021.3 mb - 0.00 in0.0 mm 0.00 in0.0 mm
05:15 AM 66.1°F18.9°C 60.4°F15.8°C 82% 3.6 mph WSW5.8 kmh WSW 5.0 mph8.0 kmh 30.16 in1021.3 mb - 0.00 in0.0 mm 0.00 in0.0 mm
05:10 AM 66.2°F19.0°C 60.5°F15.8°C 82% 3.0 mph W4.8 kmh W 6.1 mph9.8 kmh 30.16 in1021.3 mb - 0.00 in0.0 mm 0.00 in0.0 mm
05:00 AM 66.2°F19.0°C 60.6°F15.9°C 82% 4.0 mph SW6.4 kmh SW 4.0 mph6.4 kmh 30.17 in1021.7 mb - 0.00 in0.0 mm 0.00 in0.0 mm
04:50 AM 66.4°F19.1°C 60.7°F15.9°C 82% 4.3 mph WSW6.9 kmh WSW 8.1 mph13.0 kmh 30.17 in1021.7 mb - 0.00 in0.0 mm 0.00 in0.0 mm
04:45 AM 66.4°F19.1°C 60.7°F15.9°C 82% 2.6 mph WSW4.2 kmh WSW 9.1 mph14.6 kmh 30.17 in1021.7 mb - 0.00 in0.0 mm 0.00 in0.0 mm
04:40 AM 66.4°F19.1°C 60.7°F15.9°C 82% 4.2 mph WSW6.8 kmh WSW 6.1 mph9.8 kmh 30.17 in1021.7 mb - 0.00 in0.0 mm 0.00 in0.0 mm
04:30 AM 66.5°F19.2°C 60.8°F16.0°C 82% 3.2 mph SW5.1 kmh SW 6.1 mph9.8 kmh 30.17 in1021.7 mb - 0.00 in0.0 mm 0.00 in0.0 mm
04:20 AM 66.6°F19.2°C 60.9°F16.1°C 82% 5.6 mph WSW9.0 kmh WSW 9.1 mph14.6 kmh 30.17 in1021.7 mb - 0.00 in0.0 mm 0.00 in0.0 mm
04:15 AM 66.7°F19.3°C 60.7°F15.9°C 81% 2.7 mph SW4.3 kmh SW 6.1 mph9.8 kmh 30.17 in1021.7 mb - 0.00 in0.0 mm 0.00 in0.0 mm
04:10 AM 66.7°F19.3°C 60.7°F15.9°C 81% 3.7 mph SW6.0 kmh SW 8.1 mph13.0 kmh 30.16 in1021.3 mb - 0.00 in0.0 mm 0.00 in0.0 mm
04:00 AM 66.7°F19.3°C 61.0°F16.1°C 82% 4.3 mph W6.9 kmh W 9.1 mph14.6 kmh 30.17 in1021.7 mb - 0.00 in0.0 mm 0.00 in0.0 mm
03:50 AM 66.7°F19.3°C 61.0°F16.1°C 82% 3.4 mph WSW5.5 kmh WSW 5.0 mph8.0 kmh 30.16 in1021.3 mb - 0.00 in0.0 mm 0.00 in0.0 mm
03:45 AM 66.8°F19.3°C 61.1°F16.2°C 82% 3.1 mph WSW5.0 kmh WSW 6.1 mph9.8 kmh 30.16 in1021.3 mb - 0.00 in0.0 mm 0.00 in0.0 mm
03:40 AM 66.8°F19.3°C 61.1°F16.2°C 82% 4.0 mph SSW6.4 kmh SSW 9.1 mph14.6 kmh 30.17 in1021.7 mb - 0.00 in0.0 mm 0.00 in0.0 mm
03:30 AM 66.9°F19.4°C 61.2°F16.2°C 82% 3.2 mph SSW5.1 kmh SSW 7.1 mph11.4 kmh 30.17 in1021.7 mb - 0.00 in0.0 mm 0.00 in0.0 mm
03:20 AM 67.1°F19.5°C 61.4°F16.3°C 82% 5.5 mph SW8.9 kmh SW 8.1 mph13.0 kmh 30.17 in1021.7 mb - 0.00 in0.0 mm 0.00 in0.0 mm
03:15 AM 67.1°F19.5°C 61.4°F16.3°C 82% 7.0 mph SW11.3 kmh SW 9.1 mph14.6 kmh 30.17 in1021.7 mb - 0.00 in0.0 mm 0.00 in0.0 mm
03:10 AM 67.2°F19.6°C 61.5°F16.4°C 82% 1.7 mph SW2.7 kmh SW 11.1 mph17.9 kmh 30.17 in1021.7 mb - 0.00 in0.0 mm 0.00 in0.0 mm
03:00 AM 67.2°F19.6°C 61.8°F16.6°C 83% 3.1 mph SW5.0 kmh SW 4.0 mph6.4 kmh 30.17 in1021.7 mb - 0.00 in0.0 mm 0.00 in0.0 mm
02:50 AM 67.5°F19.7°C 62.1°F16.7°C 83% 4.5 mph SSW7.2 kmh SSW 8.1 mph13.0 kmh 30.18 in1022.0 mb - 0.00 in0.0 mm 0.00 in0.0 mm
02:45 AM 67.4°F19.7°C 62.4°F16.9°C 84% 1.6 mph WSW2.6 kmh WSW 8.1 mph13.0 kmh 30.18 in1022.0 mb - 0.00 in0.0 mm 0.00 in0.0 mm
02:40 AM 67.4°F19.7°C 62.4°F16.9°C 84% 1.7 mph SW2.7 kmh SW 3.0 mph4.8 kmh 30.18 in1022.0 mb - 0.00 in0.0 mm 0.00 in0.0 mm
02:30 AM 67.6°F19.8°C 62.9°F17.2°C 85% 3.5 mph SW5.6 kmh SW 7.1 mph11.4 kmh 30.18 in1022.0 mb - 0.00 in0.0 mm 0.00 in0.0 mm
02:20 AM 67.8°F19.9°C 63.1°F17.3°C 85% 1.7 mph SW2.7 kmh SW 4.0 mph6.4 kmh 30.18 in1022.0 mb - 0.00 in0.0 mm 0.00 in0.0 mm
02:15 AM 67.8°F19.9°C 63.1°F17.3°C 85% 2.7 mph SW4.3 kmh SW 3.0 mph4.8 kmh 30.18 in1022.0 mb - 0.00 in0.0 mm 0.00 in0.0 mm
02:10 AM 67.8°F19.9°C 63.1°F17.3°C 85% 2.3 mph SW3.7 kmh SW 5.0 mph8.0 kmh 30.18 in1022.0 mb - 0.00 in0.0 mm 0.00 in0.0 mm
02:00 AM 68.1°F20.1°C 63.1°F17.3°C 84% 2.3 mph SW3.7 kmh SW 6.1 mph9.8 kmh 30.18 in1022.0 mb - 0.00 in0.0 mm 0.00 in0.0 mm
01:50 AM 68.1°F20.1°C 62.8°F17.1°C 83% 4.0 mph SSW6.4 kmh SSW 4.0 mph6.4 kmh 30.18 in1022.0 mb - 0.00 in0.0 mm 0.00 in0.0 mm
01:45 AM 68.1°F20.1°C 62.8°F17.1°C 83% 3.8 mph SW6.1 kmh SW 7.1 mph11.4 kmh 30.18 in1022.0 mb - 0.00 in0.0 mm 0.00 in0.0 mm
01:40 AM 68.2°F20.1°C 62.8°F17.1°C 83% 4.3 mph SSW6.9 kmh SSW 7.1 mph11.4 kmh 30.18 in1022.0 mb - 0.00 in0.0 mm 0.00 in0.0 mm
01:30 AM 68.4°F20.2°C 62.7°F17.1°C 82% 3.2 mph S5.1 kmh S 7.1 mph11.4 kmh 30.17 in1021.7 mb - 0.00 in0.0 mm 0.00 in0.0 mm
01:20 AM 68.6°F20.3°C 62.5°F16.9°C 81% 4.2 mph SW6.8 kmh SW 6.1 mph9.8 kmh 30.17 in1021.7 mb - 0.00 in0.0 mm 0.00 in0.0 mm
01:15 AM 68.7°F20.4°C 62.6°F17.0°C 81% 1.9 mph WSW3.1 kmh WSW 6.1 mph9.8 kmh 30.17 in1021.7 mb - 0.00 in0.0 mm 0.00 in0.0 mm
01:10 AM 68.7°F20.4°C 62.6°F17.0°C 81% 1.8 mph SW2.9 kmh SW 2.0 mph3.2 kmh 30.17 in1021.7 mb - 0.00 in0.0 mm 0.00 in0.0 mm
01:00 AM 68.8°F20.4°C 62.7°F17.1°C 81% 1.3 mph SW2.1 kmh SW 5.0 mph8.0 kmh 30.16 in1021.3 mb - 0.00 in0.0 mm 0.00 in0.0 mm
12:50 AM 69.0°F20.6°C 62.6°F17.0°C 80% 0.9 mph SW1.4 kmh SW 2.0 mph3.2 kmh 30.16 in1021.3 mb - 0.00 in0.0 mm 0.00 in0.0 mm
12:45 AM 69.1°F20.6°C 62.6°F17.0°C 80% 2.3 mph SW3.7 kmh SW 5.0 mph8.0 kmh 30.16 in1021.3 mb - 0.00 in0.0 mm 0.00 in0.0 mm
12:40 AM 69.0°F20.6°C 62.9°F17.2°C 81% Calm Calm -- 30.16 in1021.3 mb - 0.00 in0.0 mm 0.00 in0.0 mm
12:30 AM 68.9°F20.5°C 62.8°F17.1°C 81% 2.9 mph SW4.7 kmh SW 4.0 mph6.4 kmh 30.16 in1021.3 mb - 0.00 in0.0 mm 0.00 in0.0 mm
12:20 AM 69.1°F20.6°C 62.6°F17.0°C 80% 1.9 mph SW3.1 kmh SW 5.0 mph8.0 kmh 30.15 in1021.0 mb - 0.00 in0.0 mm 0.00 in0.0 mm
12:15 AM 69.1°F20.6°C 62.6°F17.0°C 80% 3.2 mph SW5.1 kmh SW 4.0 mph6.4 kmh 30.15 in1021.0 mb - 0.00 in0.0 mm 0.00 in0.0 mm
12:10 AM 69.3°F20.7°C 62.1°F16.7°C 78% 4.0 mph SSW6.4 kmh SSW 4.0 mph6.4 kmh 30.15 in1021.0 mb - 0.00 in0.0 mm 0.00 in0.0 mm
12:00 AM 70.0°F21.1°C 62.4°F16.9°C 77% 6.6 mph SSW10.6 kmh SSW 8.1 mph13.0 kmh 30.15 in1021.0 mb - 0.00 in0.0 mm 0.00 in0.0 mm